sensor_id;sensor_type;location;lat;lon;timestamp;P1;durP1;ratioP1;P2;durP2;ratioP2
77948;SDS011;67146;51.236;-0.336;2023-04-28T00:01:41;67.30;;;12.27;;
77948;SDS011;67146;51.236;-0.336;2023-04-28T00:04:06;84.60;;;13.48;;
77948;SDS011;67146;51.236;-0.336;2023-04-28T00:06:32;72.15;;;13.30;;
77948;SDS011;67146;51.236;-0.336;2023-04-28T00:08:57;87.23;;;13.50;;
77948;SDS011;67146;51.236;-0.336;2023-04-28T00:11:22;77.60;;;14.10;;
77948;SDS011;67146;51.236;-0.336;2023-04-28T00:13:48;82.50;;;13.60;;
77948;SDS011;67146;51.236;-0.336;2023-04-28T00:16:13;67.53;;;12.63;;
77948;SDS011;67146;51.236;-0.336;2023-04-28T00:18:38;66.70;;;11.70;;
77948;SDS011;67146;51.236;-0.336;2023-04-28T00:21:04;71.70;;;11.97;;
77948;SDS011;67146;51.236;-0.336;2023-04-28T00:23:29;65.43;;;11.73;;
77948;SDS011;67146;51.236;-0.336;2023-04-28T00:25:54;71.90;;;12.53;;
77948;SDS011;67146;51.236;-0.336;2023-04-28T00:28:21;67.53;;;12.05;;
77948;SDS011;67146;51.236;-0.336;2023-04-28T00:30:46;60.17;;;11.05;;
77948;SDS011;67146;51.236;-0.336;2023-04-28T00:33:12;85.18;;;13.18;;
77948;SDS011;67146;51.236;-0.336;2023-04-28T00:35:38;66.63;;;11.45;;
77948;SDS011;67146;51.236;-0.336;2023-04-28T00:38:04;65.07;;;10.55;;
77948;SDS011;67146;51.236;-0.336;2023-04-28T00:40:32;47.67;;;9.33;;
77948;SDS011;67146;51.236;-0.336;2023-04-28T00:42:58;63.33;;;9.85;;
77948;SDS011;67146;51.236;-0.336;2023-04-28T00:45:23;62.47;;;10.17;;
77948;SDS011;67146;51.236;-0.336;2023-04-28T00:47:49;58.70;;;9.93;;
77948;SDS011;67146;51.236;-0.336;2023-04-28T00:50:14;64.10;;;11.38;;
77948;SDS011;67146;51.236;-0.336;2023-04-28T00:52:40;21.77;;;5.80;;
77948;SDS011;67146;51.236;-0.336;2023-04-28T00:55:07;47.65;;;8.52;;
77948;SDS011;67146;51.236;-0.336;2023-04-28T00:57:33;42.63;;;8.18;;
77948;SDS011;67146;51.236;-0.336;2023-04-28T00:59:58;38.30;;;7.30;;
77948;SDS011;67146;51.236;-0.336;2023-04-28T01:02:24;40.13;;;7.13;;
77948;SDS011;67146;51.236;-0.336;2023-04-28T01:04:50;39.28;;;6.93;;
77948;SDS011;67146;51.236;-0.336;2023-04-28T01:07:16;40.25;;;8.27;;
77948;SDS011;67146;51.236;-0.336;2023-04-28T01:09:42;46.47;;;8.90;;
77948;SDS011;67146;51.236;-0.336;2023-04-28T01:12:08;30.80;;;6.72;;
77948;SDS011;67146;51.236;-0.336;2023-04-28T01:14:33;41.05;;;7.70;;
77948;SDS011;67146;51.236;-0.336;2023-04-28T01:16:59;38.58;;;7.80;;
77948;SDS011;67146;51.236;-0.336;2023-04-28T01:19:24;48.88;;;7.97;;
77948;SDS011;67146;51.236;-0.336;2023-04-28T01:21:50;49.80;;;9.55;;
77948;SDS011;67146;51.236;-0.336;2023-04-28T01:24:16;50.70;;;8.48;;
77948;SDS011;67146;51.236;-0.336;2023-04-28T01:26:41;53.40;;;9.70;;
77948;SDS011;67146;51.236;-0.336;2023-04-28T01:29:07;52.45;;;9.52;;
77948;SDS011;67146;51.236;-0.336;2023-04-28T01:31:35;50.78;;;9.68;;
77948;SDS011;67146;51.236;-0.336;2023-04-28T01:34:00;63.83;;;10.55;;
77948;SDS011;67146;51.236;-0.336;2023-04-28T01:36:26;61.30;;;10.87;;
77948;SDS011;67146;51.236;-0.336;2023-04-28T01:38:52;50.45;;;9.98;;
77948;SDS011;67146;51.236;-0.336;2023-04-28T01:41:18;47.08;;;9.00;;
77948;SDS011;67146;51.236;-0.336;2023-04-28T01:43:43;58.22;;;11.90;;
77948;SDS011;67146;51.236;-0.336;2023-04-28T01:46:09;52.45;;;11.18;;
77948;SDS011;67146;51.236;-0.336;2023-04-28T01:48:35;62.03;;;12.23;;
77948;SDS011;67146;51.236;-0.336;2023-04-28T01:51:00;53.03;;;11.37;;
77948;SDS011;67146;51.236;-0.336;2023-04-28T01:53:25;65.00;;;12.65;;
77948;SDS011;67146;51.236;-0.336;2023-04-28T01:55:51;57.80;;;12.35;;
77948;SDS011;67146;51.236;-0.336;2023-04-28T01:58:17;61.15;;;12.35;;
77948;SDS011;67146;51.236;-0.336;2023-04-28T02:00:42;65.17;;;13.70;;
77948;SDS011;67146;51.236;-0.336;2023-04-28T02:03:07;65.20;;;14.63;;
77948;SDS011;67146;51.236;-0.336;2023-04-28T02:05:32;66.87;;;14.03;;
77948;SDS011;67146;51.236;-0.336;2023-04-28T02:07:58;56.90;;;12.93;;
77948;SDS011;67146;51.236;-0.336;2023-04-28T02:10:23;73.13;;;14.60;;
77948;SDS011;67146;51.236;-0.336;2023-04-28T02:12:48;74.63;;;14.60;;
77948;SDS011;67146;51.236;-0.336;2023-04-28T02:15:14;58.70;;;11.90;;
77948;SDS011;67146;51.236;-0.336;2023-04-28T02:17:39;83.50;;;13.88;;
77948;SDS011;67146;51.236;-0.336;2023-04-28T02:20:05;67.63;;;13.07;;
77948;SDS011;67146;51.236;-0.336;2023-04-28T02:22:30;47.53;;;10.50;;
77948;SDS011;67146;51.236;-0.336;2023-04-28T02:24:56;37.58;;;9.20;;
77948;SDS011;67146;51.236;-0.336;2023-04-28T02:27:21;50.03;;;10.70;;
77948;SDS011;67146;51.236;-0.336;2023-04-28T02:29:47;50.83;;;10.48;;
77948;SDS011;67146;51.236;-0.336;2023-04-28T02:32:12;35.30;;;8.82;;
77948;SDS011;67146;51.236;-0.336;2023-04-28T02:34:37;42.60;;;9.40;;
77948;SDS011;67146;51.236;-0.336;2023-04-28T02:37:03;42.42;;;9.43;;
77948;SDS011;67146;51.236;-0.336;2023-04-28T02:39:28;39.23;;;9.00;;
77948;SDS011;67146;51.236;-0.336;2023-04-28T02:41:55;41.65;;;9.77;;
77948;SDS011;67146;51.236;-0.336;2023-04-28T02:44:20;52.03;;;9.95;;
77948;SDS011;67146;51.236;-0.336;2023-04-28T02:46:46;40.67;;;8.38;;
77948;SDS011;67146;51.236;-0.336;2023-04-28T02:49:11;45.38;;;10.02;;
77948;SDS011;67146;51.236;-0.336;2023-04-28T02:51:37;36.53;;;9.05;;
77948;SDS011;67146;51.236;-0.336;2023-04-28T02:54:03;44.92;;;9.15;;
77948;SDS011;67146;51.236;-0.336;2023-04-28T02:56:29;63.35;;;10.57;;
77948;SDS011;67146;51.236;-0.336;2023-04-28T02:58:54;38.20;;;8.50;;
77948;SDS011;67146;51.236;-0.336;2023-04-28T03:01:20;51.85;;;9.73;;
77948;SDS011;67146;51.236;-0.336;2023-04-28T03:03:46;57.60;;;10.25;;
77948;SDS011;67146;51.236;-0.336;2023-04-28T03:06:11;36.90;;;9.13;;
77948;SDS011;67146;51.236;-0.336;2023-04-28T03:08:37;45.57;;;10.27;;
77948;SDS011;67146;51.236;-0.336;2023-04-28T03:11:02;51.20;;;10.40;;
77948;SDS011;67146;51.236;-0.336;2023-04-28T03:13:27;57.38;;;10.45;;
77948;SDS011;67146;51.236;-0.336;2023-04-28T03:15:54;51.63;;;10.38;;
77948;SDS011;67146;51.236;-0.336;2023-04-28T03:18:19;59.42;;;10.98;;
77948;SDS011;67146;51.236;-0.336;2023-04-28T03:20:46;44.58;;;9.13;;
77948;SDS011;67146;51.236;-0.336;2023-04-28T03:23:12;47.63;;;10.18;;
77948;SDS011;67146;51.236;-0.336;2023-04-28T03:25:37;41.17;;;9.00;;
77948;SDS011;67146;51.236;-0.336;2023-04-28T03:28:02;46.77;;;9.20;;
77948;SDS011;67146;51.236;-0.336;2023-04-28T03:30:28;40.00;;;9.50;;
77948;SDS011;67146;51.236;-0.336;2023-04-28T03:32:53;71.47;;;12.60;;
77948;SDS011;67146;51.236;-0.336;2023-04-28T03:35:18;55.40;;;10.87;;
77948;SDS011;67146;51.236;-0.336;2023-04-28T03:37:44;50.67;;;10.85;;
77948;SDS011;67146;51.236;-0.336;2023-04-28T03:40:09;26.97;;;6.70;;
77948;SDS011;67146;51.236;-0.336;2023-04-28T03:42:35;46.42;;;8.55;;
77948;SDS011;67146;51.236;-0.336;2023-04-28T03:45:01;43.53;;;7.88;;
77948;SDS011;67146;51.236;-0.336;2023-04-28T03:47:26;41.22;;;7.60;;
77948;SDS011;67146;51.236;-0.336;2023-04-28T03:49:52;26.65;;;6.43;;
77948;SDS011;67146;51.236;-0.336;2023-04-28T03:52:17;34.75;;;7.70;;
77948;SDS011;67146;51.236;-0.336;2023-04-28T03:54:43;23.83;;;4.68;;
77948;SDS011;67146;51.236;-0.336;2023-04-28T03:57:08;34.13;;;6.05;;
77948;SDS011;67146;51.236;-0.336;2023-04-28T03:59:33;23.80;;;4.60;;
77948;SDS011;67146;51.236;-0.336;2023-04-28T04:01:59;24.37;;;4.03;;
77948;SDS011;67146;51.236;-0.336;2023-04-28T04:04:24;18.20;;;3.28;;
77948;SDS011;67146;51.236;-0.336;2023-04-28T04:06:50;19.43;;;3.93;;
77948;SDS011;67146;51.236;-0.336;2023-04-28T04:09:16;23.58;;;3.83;;
77948;SDS011;67146;51.236;-0.336;2023-04-28T04:11:41;21.30;;;3.40;;
77948;SDS011;67146;51.236;-0.336;2023-04-28T04:14:06;21.10;;;4.15;;
77948;SDS011;67146;51.236;-0.336;2023-04-28T04:16:32;23.83;;;3.93;;
77948;SDS011;67146;51.236;-0.336;2023-04-28T04:18:57;20.60;;;4.03;;
77948;SDS011;67146;51.236;-0.336;2023-04-28T04:21:22;20.97;;;3.77;;
77948;SDS011;67146;51.236;-0.336;2023-04-28T04:23:48;18.10;;;3.55;;
77948;SDS011;67146;51.236;-0.336;2023-04-28T04:26:13;21.42;;;3.72;;
77948;SDS011;67146;51.236;-0.336;2023-04-28T04:28:38;26.50;;;4.50;;
77948;SDS011;67146;51.236;-0.336;2023-04-28T04:31:04;19.83;;;3.93;;
77948;SDS011;67146;51.236;-0.336;2023-04-28T04:33:29;20.20;;;4.10;;
77948;SDS011;67146;51.236;-0.336;2023-04-28T04:35:54;26.70;;;4.07;;
77948;SDS011;67146;51.236;-0.336;2023-04-28T04:38:20;14.43;;;2.08;;
77948;SDS011;67146;51.236;-0.336;2023-04-28T04:40:45;14.13;;;1.80;;
77948;SDS011;67146;51.236;-0.336;2023-04-28T04:43:11;11.88;;;2.78;;
77948;SDS011;67146;51.236;-0.336;2023-04-28T04:45:36;9.00;;;1.67;;
77948;SDS011;67146;51.236;-0.336;2023-04-28T04:48:02;11.68;;;1.67;;
77948;SDS011;67146;51.236;-0.336;2023-04-28T04:50:27;9.00;;;1.52;;
77948;SDS011;67146;51.236;-0.336;2023-04-28T04:52:52;8.50;;;1.60;;
77948;SDS011;67146;51.236;-0.336;2023-04-28T04:55:20;8.95;;;1.73;;
77948;SDS011;67146;51.236;-0.336;2023-04-28T04:57:46;9.23;;;1.92;;
77948;SDS011;67146;51.236;-0.336;2023-04-28T05:00:12;12.35;;;2.05;;
77948;SDS011;67146;51.236;-0.336;2023-04-28T05:02:37;10.30;;;1.80;;
77948;SDS011;67146;51.236;-0.336;2023-04-28T05:05:03;16.80;;;2.25;;
77948;SDS011;67146;51.236;-0.336;2023-04-28T05:07:28;13.23;;;1.92;;
77948;SDS011;67146;51.236;-0.336;2023-04-28T05:09:53;15.17;;;2.13;;
77948;SDS011;67146;51.236;-0.336;2023-04-28T05:12:19;12.07;;;2.30;;
77948;SDS011;67146;51.236;-0.336;2023-04-28T05:14:44;11.20;;;2.00;;
77948;SDS011;67146;51.236;-0.336;2023-04-28T05:17:09;17.47;;;2.40;;
77948;SDS011;67146;51.236;-0.336;2023-04-28T05:19:35;18.15;;;2.65;;
77948;SDS011;67146;51.236;-0.336;2023-04-28T05:22:01;17.95;;;3.20;;
77948;SDS011;67146;51.236;-0.336;2023-04-28T05:24:26;21.63;;;4.22;;
77948;SDS011;67146;51.236;-0.336;2023-04-28T05:26:52;20.85;;;3.22;;
77948;SDS011;67146;51.236;-0.336;2023-04-28T05:29:18;19.35;;;2.83;;
77948;SDS011;67146;51.236;-0.336;2023-04-28T05:31:44;15.43;;;3.08;;
77948;SDS011;67146;51.236;-0.336;2023-04-28T05:34:09;15.15;;;3.28;;
77948;SDS011;67146;51.236;-0.336;2023-04-28T05:36:35;16.63;;;2.55;;
77948;SDS011;67146;51.236;-0.336;2023-04-28T05:39:01;19.70;;;3.45;;
77948;SDS011;67146;51.236;-0.336;2023-04-28T05:41:26;16.97;;;3.90;;
77948;SDS011;67146;51.236;-0.336;2023-04-28T05:43:51;13.67;;;2.87;;
77948;SDS011;67146;51.236;-0.336;2023-04-28T05:46:17;17.10;;;2.47;;
77948;SDS011;67146;51.236;-0.336;2023-04-28T05:48:42;12.10;;;2.70;;
77948;SDS011;67146;51.236;-0.336;2023-04-28T05:51:07;15.50;;;2.63;;
77948;SDS011;67146;51.236;-0.336;2023-04-28T05:53:33;12.27;;;2.70;;
77948;SDS011;67146;51.236;-0.336;2023-04-28T05:55:58;14.90;;;2.43;;
77948;SDS011;67146;51.236;-0.336;2023-04-28T05:58:23;5.80;;;1.30;;
77948;SDS011;67146;51.236;-0.336;2023-04-28T06:00:49;6.80;;;1.23;;
77948;SDS011;67146;51.236;-0.336;2023-04-28T06:03:14;8.98;;;1.27;;
77948;SDS011;67146;51.236;-0.336;2023-04-28T06:05:42;6.93;;;1.10;;
77948;SDS011;67146;51.236;-0.336;2023-04-28T06:08:08;7.43;;;1.23;;
77948;SDS011;67146;51.236;-0.336;2023-04-28T06:10:33;5.40;;;1.10;;
77948;SDS011;67146;51.236;-0.336;2023-04-28T06:12:59;5.50;;;0.70;;
77948;SDS011;67146;51.236;-0.336;2023-04-28T06:15:24;4.18;;;0.70;;
77948;SDS011;67146;51.236;-0.336;2023-04-28T06:17:49;4.20;;;0.80;;
77948;SDS011;67146;51.236;-0.336;2023-04-28T06:20:15;4.53;;;1.08;;
77948;SDS011;67146;51.236;-0.336;2023-04-28T06:22:40;5.65;;;1.25;;
77948;SDS011;67146;51.236;-0.336;2023-04-28T06:25:06;4.75;;;1.00;;
77948;SDS011;67146;51.236;-0.336;2023-04-28T06:27:31;6.32;;;1.27;;
77948;SDS011;67146;51.236;-0.336;2023-04-28T06:29:57;5.90;;;1.70;;
77948;SDS011;67146;51.236;-0.336;2023-04-28T06:32:23;5.38;;;0.80;;
77948;SDS011;67146;51.236;-0.336;2023-04-28T06:34:48;5.70;;;0.88;;
77948;SDS011;67146;51.236;-0.336;2023-04-28T06:37:14;6.17;;;1.50;;
77948;SDS011;67146;51.236;-0.336;2023-04-28T06:39:39;4.70;;;1.00;;
77948;SDS011;67146;51.236;-0.336;2023-04-28T06:42:05;4.78;;;0.85;;
77948;SDS011;67146;51.236;-0.336;2023-04-28T06:44:30;5.03;;;0.98;;
77948;SDS011;67146;51.236;-0.336;2023-04-28T06:46:55;4.15;;;0.68;;
77948;SDS011;67146;51.236;-0.336;2023-04-28T06:49:21;5.45;;;1.02;;
77948;SDS011;67146;51.236;-0.336;2023-04-28T06:51:46;4.83;;;1.43;;
77948;SDS011;67146;51.236;-0.336;2023-04-28T06:54:11;4.25;;;0.80;;
77948;SDS011;67146;51.236;-0.336;2023-04-28T06:56:37;5.05;;;0.80;;
77948;SDS011;67146;51.236;-0.336;2023-04-28T06:59:02;5.03;;;1.02;;
77948;SDS011;67146;51.236;-0.336;2023-04-28T07:01:28;5.45;;;1.10;;
77948;SDS011;67146;51.236;-0.336;2023-04-28T07:03:53;3.72;;;0.75;;
77948;SDS011;67146;51.236;-0.336;2023-04-28T07:06:19;5.45;;;0.93;;
77948;SDS011;67146;51.236;-0.336;2023-04-28T07:08:44;4.85;;;1.00;;
77948;SDS011;67146;51.236;-0.336;2023-04-28T07:11:10;3.75;;;1.33;;
77948;SDS011;67146;51.236;-0.336;2023-04-28T07:13:35;4.38;;;0.70;;
77948;SDS011;67146;51.236;-0.336;2023-04-28T07:16:01;4.50;;;0.73;;
77948;SDS011;67146;51.236;-0.336;2023-04-28T07:18:26;4.60;;;1.00;;
77948;SDS011;67146;51.236;-0.336;2023-04-28T07:20:52;4.80;;;0.73;;
77948;SDS011;67146;51.236;-0.336;2023-04-28T07:23:18;4.93;;;0.63;;
77948;SDS011;67146;51.236;-0.336;2023-04-28T07:25:43;6.38;;;1.00;;
77948;SDS011;67146;51.236;-0.336;2023-04-28T07:28:08;3.78;;;0.80;;
77948;SDS011;67146;51.236;-0.336;2023-04-28T07:30:34;5.22;;;1.52;;
77948;SDS011;67146;51.236;-0.336;2023-04-28T07:33:00;4.55;;;0.73;;
77948;SDS011;67146;51.236;-0.336;2023-04-28T07:35:25;3.90;;;0.47;;
77948;SDS011;67146;51.236;-0.336;2023-04-28T07:37:51;4.70;;;0.70;;
77948;SDS011;67146;51.236;-0.336;2023-04-28T07:40:16;6.57;;;0.70;;
77948;SDS011;67146;51.236;-0.336;2023-04-28T07:42:42;4.50;;;0.93;;
77948;SDS011;67146;51.236;-0.336;2023-04-28T07:45:07;4.53;;;0.60;;
77948;SDS011;67146;51.236;-0.336;2023-04-28T07:47:33;4.13;;;0.60;;
77948;SDS011;67146;51.236;-0.336;2023-04-28T07:49:59;3.67;;;0.60;;
77948;SDS011;67146;51.236;-0.336;2023-04-28T07:52:28;3.40;;;0.50;;
77948;SDS011;67146;51.236;-0.336;2023-04-28T07:54:54;4.03;;;0.43;;
77948;SDS011;67146;51.236;-0.336;2023-04-28T07:57:19;3.23;;;0.40;;
77948;SDS011;67146;51.236;-0.336;2023-04-28T07:59:45;3.33;;;0.45;;
77948;SDS011;67146;51.236;-0.336;2023-04-28T08:02:10;4.70;;;0.88;;
77948;SDS011;67146;51.236;-0.336;2023-04-28T08:04:37;3.55;;;0.50;;
77948;SDS011;67146;51.236;-0.336;2023-04-28T08:07:03;2.80;;;0.40;;
77948;SDS011;67146;51.236;-0.336;2023-04-28T08:09:28;2.87;;;0.23;;
77948;SDS011;67146;51.236;-0.336;2023-04-28T08:11:54;2.30;;;0.40;;
77948;SDS011;67146;51.236;-0.336;2023-04-28T08:14:19;2.63;;;0.40;;
77948;SDS011;67146;51.236;-0.336;2023-04-28T08:16:45;3.67;;;0.50;;
77948;SDS011;67146;51.236;-0.336;2023-04-28T08:19:11;2.63;;;0.57;;
77948;SDS011;67146;51.236;-0.336;2023-04-28T08:21:36;2.60;;;0.32;;
77948;SDS011;67146;51.236;-0.336;2023-04-28T08:24:02;3.33;;;0.20;;
77948;SDS011;67146;51.236;-0.336;2023-04-28T08:26:27;2.30;;;0.65;;
77948;SDS011;67146;51.236;-0.336;2023-04-28T08:28:53;2.50;;;0.30;;
77948;SDS011;67146;51.236;-0.336;2023-04-28T08:31:18;3.20;;;0.43;;
77948;SDS011;67146;51.236;-0.336;2023-04-28T08:33:43;3.80;;;0.35;;
77948;SDS011;67146;51.236;-0.336;2023-04-28T08:36:12;2.00;;;0.20;;
77948;SDS011;67146;51.236;-0.336;2023-04-28T08:38:39;2.55;;;0.30;;
77948;SDS011;67146;51.236;-0.336;2023-04-28T08:41:04;1.52;;;0.20;;
77948;SDS011;67146;51.236;-0.336;2023-04-28T08:43:31;3.35;;;0.68;;
77948;SDS011;67146;51.236;-0.336;2023-04-28T08:45:59;2.45;;;0.32;;
77948;SDS011;67146;51.236;-0.336;2023-04-28T08:48:26;4.35;;;0.55;;
77948;SDS011;67146;51.236;-0.336;2023-04-28T08:50:53;2.85;;;0.22;;
77948;SDS011;67146;51.236;-0.336;2023-04-28T08:53:22;2.38;;;0.38;;
77948;SDS011;67146;51.236;-0.336;2023-04-28T08:55:55;2.35;;;0.20;;
77948;SDS011;67146;51.236;-0.336;2023-04-28T08:58:22;3.35;;;0.40;;
77948;SDS011;67146;51.236;-0.336;2023-04-28T09:00:48;2.33;;;0.20;;
77948;SDS011;67146;51.236;-0.336;2023-04-28T09:03:14;2.17;;;0.20;;
77948;SDS011;67146;51.236;-0.336;2023-04-28T09:05:40;2.72;;;0.20;;
77948;SDS011;67146;51.236;-0.336;2023-04-28T09:08:05;2.83;;;0.30;;
77948;SDS011;67146;51.236;-0.336;2023-04-28T09:10:30;3.80;;;0.40;;
77948;SDS011;67146;51.236;-0.336;2023-04-28T09:12:56;4.80;;;0.60;;
77948;SDS011;67146;51.236;-0.336;2023-04-28T09:15:35;1.80;;;0.20;;
77948;SDS011;67146;51.236;-0.336;2023-04-28T09:18:02;2.03;;;0.20;;
77948;SDS011;67146;51.236;-0.336;2023-04-28T09:20:31;2.35;;;0.32;;
77948;SDS011;67146;51.236;-0.336;2023-04-28T09:23:16;1.65;;;0.10;;
77948;SDS011;67146;51.236;-0.336;2023-04-28T09:28:27;1.40;;;0.13;;
77948;SDS011;67146;51.236;-0.336;2023-04-28T09:30:52;1.38;;;0.20;;
77948;SDS011;67146;51.236;-0.336;2023-04-28T09:33:18;2.20;;;0.40;;
77948;SDS011;67146;51.236;-0.336;2023-04-28T09:35:45;1.88;;;0.30;;
77948;SDS011;67146;51.236;-0.336;2023-04-28T09:38:11;1.65;;;0.35;;
77948;SDS011;67146;51.236;-0.336;2023-04-28T09:40:50;2.50;;;0.30;;
77948;SDS011;67146;51.236;-0.336;2023-04-28T09:43:25;1.70;;;0.20;;
77948;SDS011;67146;51.236;-0.336;2023-04-28T09:45:55;1.60;;;0.20;;
77948;SDS011;67146;51.236;-0.336;2023-04-28T09:48:34;1.95;;;0.30;;
77948;SDS011;67146;51.236;-0.336;2023-04-28T09:51:01;2.03;;;0.38;;
77948;SDS011;67146;51.236;-0.336;2023-04-28T09:53:31;2.17;;;0.40;;
77948;SDS011;67146;51.236;-0.336;2023-04-28T09:55:59;2.08;;;0.75;;
77948;SDS011;67146;51.236;-0.336;2023-04-28T09:58:25;1.73;;;0.47;;
77948;SDS011;67146;51.236;-0.336;2023-04-28T10:00:53;1.67;;;0.45;;
77948;SDS011;67146;51.236;-0.336;2023-04-28T10:03:23;2.38;;;0.47;;
77948;SDS011;67146;51.236;-0.336;2023-04-28T10:05:50;1.52;;;0.47;;
77948;SDS011;67146;51.236;-0.336;2023-04-28T10:08:18;1.85;;;0.30;;
77948;SDS011;67146;51.236;-0.336;2023-04-28T10:10:44;1.70;;;0.20;;
77948;SDS011;67146;51.236;-0.336;2023-04-28T10:13:13;1.75;;;0.20;;
77948;SDS011;67146;51.236;-0.336;2023-04-28T10:15:39;1.50;;;0.28;;
77948;SDS011;67146;51.236;-0.336;2023-04-28T10:18:04;1.77;;;0.65;;
77948;SDS011;67146;51.236;-0.336;2023-04-28T10:20:30;1.33;;;0.20;;
77948;SDS011;67146;51.236;-0.336;2023-04-28T10:25:43;3.28;;;0.28;;
77948;SDS011;67146;51.236;-0.336;2023-04-28T10:28:12;2.67;;;0.52;;
77948;SDS011;67146;51.236;-0.336;2023-04-28T10:30:38;2.03;;;0.30;;
77948;SDS011;67146;51.236;-0.336;2023-04-28T10:35:39;3.45;;;0.95;;
77948;SDS011;67146;51.236;-0.336;2023-04-28T10:38:10;1.45;;;0.20;;
77948;SDS011;67146;51.236;-0.336;2023-04-28T10:43:09;1.67;;;0.20;;
77948;SDS011;67146;51.236;-0.336;2023-04-28T10:46:21;2.88;;;0.20;;
77948;SDS011;67146;51.236;-0.336;2023-04-28T10:56:10;1.65;;;0.20;;
77948;SDS011;67146;51.236;-0.336;2023-04-28T10:58:37;3.40;;;0.20;;
77948;SDS011;67146;51.236;-0.336;2023-04-28T11:08:53;2.70;;;0.40;;
77948;SDS011;67146;51.236;-0.336;2023-04-28T11:11:22;2.83;;;0.43;;
77948;SDS011;67146;51.236;-0.336;2023-04-28T11:16:24;2.92;;;0.73;;
77948;SDS011;67146;51.236;-0.336;2023-04-28T11:18:53;4.15;;;0.30;;
77948;SDS011;67146;51.236;-0.336;2023-04-28T11:21:23;5.40;;;0.70;;
77948;SDS011;67146;51.236;-0.336;2023-04-28T11:23:49;2.63;;;0.22;;
77948;SDS011;67146;51.236;-0.336;2023-04-28T11:26:15;4.03;;;0.63;;
77948;SDS011;67146;51.236;-0.336;2023-04-28T11:28:47;1.65;;;0.22;;
77948;SDS011;67146;51.236;-0.336;2023-04-28T11:31:16;3.05;;;0.20;;
77948;SDS011;67146;51.236;-0.336;2023-04-28T11:33:55;2.35;;;0.55;;
77948;SDS011;67146;51.236;-0.336;2023-04-28T11:36:22;1.30;;;0.20;;
77948;SDS011;67146;51.236;-0.336;2023-04-28T11:38:48;1.90;;;0.20;;
77948;SDS011;67146;51.236;-0.336;2023-04-28T11:41:13;1.83;;;0.40;;
77948;SDS011;67146;51.236;-0.336;2023-04-28T11:43:39;1.57;;;0.20;;
77948;SDS011;67146;51.236;-0.336;2023-04-28T11:46:06;2.63;;;0.40;;
77948;SDS011;67146;51.236;-0.336;2023-04-28T11:48:31;1.83;;;0.22;;
77948;SDS011;67146;51.236;-0.336;2023-04-28T11:50:57;2.00;;;0.20;;
77948;SDS011;67146;51.236;-0.336;2023-04-28T11:53:39;1.77;;;0.50;;
77948;SDS011;67146;51.236;-0.336;2023-04-28T11:56:07;2.50;;;0.30;;
77948;SDS011;67146;51.236;-0.336;2023-04-28T11:58:33;1.73;;;0.52;;
77948;SDS011;67146;51.236;-0.336;2023-04-28T12:01:08;2.07;;;0.20;;
77948;SDS011;67146;51.236;-0.336;2023-04-28T12:03:41;2.92;;;0.75;;
77948;SDS011;67146;51.236;-0.336;2023-04-28T12:06:09;2.95;;;0.57;;
77948;SDS011;67146;51.236;-0.336;2023-04-28T12:08:35;2.03;;;0.20;;
77948;SDS011;67146;51.236;-0.336;2023-04-28T12:11:07;4.00;;;0.50;;
77948;SDS011;67146;51.236;-0.336;2023-04-28T12:13:39;1.98;;;0.52;;
77948;SDS011;67146;51.236;-0.336;2023-04-28T12:16:06;2.25;;;0.32;;
77948;SDS011;67146;51.236;-0.336;2023-04-28T12:18:32;1.85;;;0.20;;
77948;SDS011;67146;51.236;-0.336;2023-04-28T12:20:57;2.45;;;0.50;;
77948;SDS011;67146;51.236;-0.336;2023-04-28T12:23:30;2.33;;;0.30;;
77948;SDS011;67146;51.236;-0.336;2023-04-28T12:25:56;2.03;;;0.30;;
77948;SDS011;67146;51.236;-0.336;2023-04-28T12:28:22;3.75;;;0.40;;
77948;SDS011;67146;51.236;-0.336;2023-04-28T12:30:48;4.45;;;0.82;;
77948;SDS011;67146;51.236;-0.336;2023-04-28T12:33:21;3.85;;;0.75;;
77948;SDS011;67146;51.236;-0.336;2023-04-28T12:35:50;3.42;;;0.77;;
77948;SDS011;67146;51.236;-0.336;2023-04-28T12:38:16;4.30;;;0.90;;
77948;SDS011;67146;51.236;-0.336;2023-04-28T12:40:41;3.22;;;0.73;;
77948;SDS011;67146;51.236;-0.336;2023-04-28T12:43:07;3.30;;;0.70;;
77948;SDS011;67146;51.236;-0.336;2023-04-28T12:45:32;6.10;;;1.10;;
77948;SDS011;67146;51.236;-0.336;2023-04-28T12:47:58;3.42;;;0.73;;
77948;SDS011;67146;51.236;-0.336;2023-04-28T12:50:23;2.42;;;0.57;;
77948;SDS011;67146;51.236;-0.336;2023-04-28T12:52:51;2.45;;;0.50;;
77948;SDS011;67146;51.236;-0.336;2023-04-28T12:55:16;2.30;;;0.43;;
77948;SDS011;67146;51.236;-0.336;2023-04-28T12:57:41;3.92;;;0.52;;
77948;SDS011;67146;51.236;-0.336;2023-04-28T13:00:07;2.90;;;0.70;;
77948;SDS011;67146;51.236;-0.336;2023-04-28T13:02:33;3.45;;;0.60;;
77948;SDS011;67146;51.236;-0.336;2023-04-28T13:04:58;2.70;;;0.45;;
77948;SDS011;67146;51.236;-0.336;2023-04-28T13:07:24;2.80;;;0.55;;
77948;SDS011;67146;51.236;-0.336;2023-04-28T13:09:49;3.30;;;0.53;;
77948;SDS011;67146;51.236;-0.336;2023-04-28T13:12:15;5.93;;;0.82;;
77948;SDS011;67146;51.236;-0.336;2023-04-28T13:14:43;3.33;;;0.85;;
77948;SDS011;67146;51.236;-0.336;2023-04-28T13:17:09;3.60;;;0.65;;
77948;SDS011;67146;51.236;-0.336;2023-04-28T13:19:35;3.38;;;1.02;;
77948;SDS011;67146;51.236;-0.336;2023-04-28T13:22:00;3.60;;;0.57;;
77948;SDS011;67146;51.236;-0.336;2023-04-28T13:24:32;2.65;;;0.50;;
77948;SDS011;67146;51.236;-0.336;2023-04-28T13:26:58;3.50;;;0.80;;
77948;SDS011;67146;51.236;-0.336;2023-04-28T13:29:23;3.70;;;0.77;;
77948;SDS011;67146;51.236;-0.336;2023-04-28T13:31:48;2.60;;;0.50;;
77948;SDS011;67146;51.236;-0.336;2023-04-28T13:34:15;3.03;;;0.70;;
77948;SDS011;67146;51.236;-0.336;2023-04-28T13:36:42;3.03;;;0.88;;
77948;SDS011;67146;51.236;-0.336;2023-04-28T13:39:07;2.80;;;0.52;;
77948;SDS011;67146;51.236;-0.336;2023-04-28T13:41:38;3.58;;;0.77;;
77948;SDS011;67146;51.236;-0.336;2023-04-28T13:48:57;3.03;;;0.60;;
77948;SDS011;67146;51.236;-0.336;2023-04-28T13:51:23;5.82;;;0.95;;
77948;SDS011;67146;51.236;-0.336;2023-04-28T13:53:48;3.15;;;0.88;;
77948;SDS011;67146;51.236;-0.336;2023-04-28T13:56:13;3.30;;;0.57;;
77948;SDS011;67146;51.236;-0.336;2023-04-28T13:58:39;3.80;;;0.60;;
77948;SDS011;67146;51.236;-0.336;2023-04-28T14:01:04;3.47;;;0.97;;
77948;SDS011;67146;51.236;-0.336;2023-04-28T14:03:30;3.65;;;0.82;;
77948;SDS011;67146;51.236;-0.336;2023-04-28T14:05:56;2.80;;;0.52;;
77948;SDS011;67146;51.236;-0.336;2023-04-28T14:08:22;4.35;;;0.60;;
77948;SDS011;67146;51.236;-0.336;2023-04-28T14:10:48;3.42;;;0.60;;
77948;SDS011;67146;51.236;-0.336;2023-04-28T14:13:14;3.63;;;0.57;;
77948;SDS011;67146;51.236;-0.336;2023-04-28T14:15:39;3.10;;;0.88;;
77948;SDS011;67146;51.236;-0.336;2023-04-28T14:18:06;2.60;;;0.57;;
77948;SDS011;67146;51.236;-0.336;2023-04-28T14:20:32;2.53;;;0.40;;
77948;SDS011;67146;51.236;-0.336;2023-04-28T14:22:58;3.17;;;1.17;;
77948;SDS011;67146;51.236;-0.336;2023-04-28T14:25:24;2.95;;;0.82;;
77948;SDS011;67146;51.236;-0.336;2023-04-28T14:27:49;3.03;;;0.55;;
77948;SDS011;67146;51.236;-0.336;2023-04-28T14:30:15;3.75;;;0.95;;
77948;SDS011;67146;51.236;-0.336;2023-04-28T14:32:41;2.80;;;0.60;;
77948;SDS011;67146;51.236;-0.336;2023-04-28T14:35:07;2.17;;;0.40;;
77948;SDS011;67146;51.236;-0.336;2023-04-28T14:37:33;3.53;;;1.00;;
77948;SDS011;67146;51.236;-0.336;2023-04-28T14:39:59;3.50;;;0.52;;
77948;SDS011;67146;51.236;-0.336;2023-04-28T14:42:27;2.38;;;0.30;;
77948;SDS011;67146;51.236;-0.336;2023-04-28T14:44:57;2.30;;;0.32;;
77948;SDS011;67146;51.236;-0.336;2023-04-28T14:47:25;2.42;;;0.30;;
77948;SDS011;67146;51.236;-0.336;2023-04-28T14:49:51;4.88;;;0.57;;
77948;SDS011;67146;51.236;-0.336;2023-04-28T14:52:20;3.05;;;0.70;;
77948;SDS011;67146;51.236;-0.336;2023-04-28T14:54:46;2.40;;;0.20;;
77948;SDS011;67146;51.236;-0.336;2023-04-28T14:57:12;2.78;;;0.32;;